• Join FlightAware (Why Join?)
  • Login
  • US Flag 
Rudolph Flight #1: Arrived! 
03:54AM EST


 

Airport Tracker/Info


-or-


 

Live Flight TrackerFlight Track Log ✈ UAL6002 ✈ 12-Apr-2013 ✈ KORD - KORD

Flight Track Log - Related Links

Times and Time Zones

All times are in EDT time to prevent confusion due to time zone crossing. See the UAL6002 flight status page for this flight to view local times or setup timezone preferences in your user account.

Time Position Orientation Groundspeed Altitude Reporting Facility
EDT Latitude Longitude Course Direction KTS MPH feet Rate Location/Type
07:31AM 42.0333 -87.9167 49° Northeast 215 247 3,400  Level Chicago TRACON
07:33AM 42.1247 -87.7750 49° Northeast 272 313 7,500 1,920 Climbing Chicago Center
07:34AM 42.1475 -87.6706 74° East 290 334 9,500 1,980 Climbing Chicago Center
07:35AM 42.1728 -87.5547 74° East 314 361 11,600 1,800 Climbing Chicago Center
07:36AM 42.1997 -87.4303 74° East 339 390 13,200 1,080 Climbing Chicago Center
07:37AM 42.2294 -87.2931 74° East 377 434 13,800 660 Climbing Chicago Center
07:38AM 42.2622 -87.1444 73° East 408 470 14,600 840 Climbing Chicago Center
07:40AM 42.2808 -86.9892 81° East 419 482 15,600 960 Climbing Chicago Center
07:41AM 42.2878 -86.8317 87° East 422 486 16,600 1,020 Climbing Chicago Center
07:42AM 42.2942 -86.6533 87° East 427 491 17,700 1,140 Climbing Chicago Center
07:43AM 42.3017 -86.4997 86° East 433 498 19,000 1,080 Climbing Chicago Center
07:44AM 42.3069 -86.3356 87° East 438 504 20,000 960 Climbing Chicago Center
07:45AM 42.3136 -86.1694 87° East 444 511 21,000 1,260 Climbing Chicago Center
07:46AM 42.3139 -85.9711 90° East 445 512 22,600 1,440 Climbing Chicago Center
07:47AM 42.3122 -85.8111 91° East 433 498 24,000 1,320 Climbing Chicago Center
07:48AM 42.3094 -85.6525 91° East 426 490 25,400 1,140 Climbing Chicago Center
07:49AM 42.3081 -85.4942 91° East 426 490 26,400 960 Climbing Chicago Center
07:50AM 42.3050 -85.3339 91° East 427 491 27,400 960 Climbing Chicago Center
07:50AM 42.3042 -85.2161 91° East 410 472 28,100 960 Climbing Cleveland Center
07:51AM 42.3019 -85.0617 91° East 416 479 29,100 960 Climbing Cleveland Center
07:52AM 42.3000 -84.8986 91° East 422 486 30,100 960 Climbing Cleveland Center
07:53AM 42.2936 -84.7353 93° East 422 486 31,100 960 Climbing Cleveland Center
07:54AM 42.2867 -84.5747 93° East 427 491 32,100 900 Climbing Cleveland Center
07:55AM 42.2922 -84.4094 87° East 427 491 33,000 900 Climbing Cleveland Center
07:56AM 42.3164 -84.2422 79° East 435 501 34,000 900 Climbing Cleveland Center
07:57AM 42.3406 -84.0753 79° East 445 512 34,900 480 Climbing Cleveland Center
07:58AM 42.3642 -83.9050 79° East 450 518 35,000  Climbing Cleveland Center
07:59AM 42.3900 -83.7319 79° East 455 524 35,000 60 Level Cleveland Center
08:00AM 42.4200 -83.5422 78° East 468 539 35,200 600 Climbing Cleveland Center
08:01AM 42.4614 -83.3922 69° East 463 533 36,300 900 Climbing Cleveland Center
08:02AM 42.5047 -83.2306 70° East 463 533 37,000 300 Climbing Cleveland Center
08:03AM 42.5481 -83.0661 70° East 462 532 37,000  Level Cleveland Center
08:04AM 42.5953 -82.8931 70° East 468 539 37,000  Level Cleveland Center
08:05AM 42.6406 -82.7169 71° East 478 550 37,000  Level Cleveland Center
08:06AM 42.6853 -82.5433 71° East 478 550 37,000  Level Cleveland Center
08:07AM 42.7297 -82.3722 70° East 478 550 37,000  Level Cleveland Center
08:08AM 42.7739 -82.2039 70° East 478 550 37,000  Level Cleveland Center
08:09AM 42.8158 -82.0322 72° East 478 550 37,000  Level Cleveland Center
08:11AM 42.8833 -81.7333 73° East 470 541 37,000  Level Toronto Center
08:12AM 42.9167 -81.5500 76° East 460 529 37,000  Level Toronto Center
08:13AM 42.9667 -81.4167 63° Northeast 440 506 37,000  Level Toronto Center
08:14AM 43.0000 -81.2333 76° East 450 518 37,000  Level Toronto Center
08:15AM 43.0500 -81.0667 68° East 470 541 37,000  Level Toronto Center
08:16AM 43.1167 -80.9167 59° Northeast 490 564 37,000  Level Toronto Center
08:17AM 43.1833 -80.7500 61° Northeast 460 529 37,000  Level Toronto Center
08:18AM 43.2500 -80.6167 56° Northeast 450 518 37,000  Level Toronto Center
08:19AM 43.3167 -80.4500 61° Northeast 460 529 37,000  Level Toronto Center
08:20AM 43.3667 -80.3167 63° Northeast 470 541 37,000  Level Toronto Center
08:21AM 43.4333 -80.1333 63° Northeast 480 552 37,000  Level Toronto Center
08:23AM 43.5667 -79.8167 60° Northeast 480 552 37,000  Level Toronto Center
08:24AM 43.6333 -79.6500 61° Northeast 490 564 37,000  Level Toronto Center
08:25AM 43.6833 -79.5000 65° Northeast 490 564 37,000  Level Toronto Center
08:26AM 43.7333 -79.3167 69° East 490 564 37,000  Level Toronto Center
08:27AM 43.7833 -79.1500 67° East 470 541 37,000  Level Toronto Center
08:28AM 43.8333 -78.9833 67° East 470 541 37,000  Level Toronto Center
08:29AM 43.8833 -78.8000 69° East 460 529 37,000  Level Toronto Center
08:30AM 43.9333 -78.6333 67° East 460 529 37,000 -300 Level Toronto Center
08:31AM 44.0167 -78.5000 49° Northeast 480 552 36,400 -540 Descending Toronto Center
08:32AM 44.1333 -78.4500 17° North 510 587 36,000 -240 Descending Toronto Center
08:33AM 44.2667 -78.4667 355° North 490 564 36,000  Level Toronto Center
08:34AM 44.3667 -78.6000 316° Northwest 440 506 36,000  Level Toronto Center
08:35AM 44.3833 -78.7167 281° West 380 437 36,000  Level Toronto Center
08:36AM 44.3500 -78.8667 253° West 350 403 36,000  Level Toronto Center
08:37AM 44.3167 -78.9833 248° West 340 391 36,000  Level Toronto Center
08:38AM 44.2833 -79.1167 251° West 340 391 36,000  Level Toronto Center
08:39AM 44.2500 -79.2333 248° West 360 414 36,000  Level Toronto Center
08:40AM 44.2000 -79.3833 245° Southwest 370 426 36,000  Level Toronto Center
08:41AM 44.1667 -79.5167 251° West 370 426 36,000  Level Toronto Center
08:42AM 44.1333 -79.6333 248° West 360 414 36,000  Level Toronto Center
08:43AM 44.1000 -79.7667 251° West 340 391 36,000  Level Toronto Center
08:44AM 44.0667 -79.8833 248° West 340 391 36,000  Level Toronto Center
08:45AM 44.0333 -80.0000 248° West 340 391 36,000  Level Toronto Center
08:46AM 44.0000 -80.1500 253° West 340 391 36,000  Level Toronto Center
08:47AM 43.9667 -80.2500 245° Southwest 350 403 36,000  Level Toronto Center
08:48AM 43.9333 -80.4000 253° West 350 403 36,000  Level Toronto Center
08:49AM 43.9000 -80.5167 248° West 350 403 36,000  Level Toronto Center
08:50AM 43.8667 -80.6500 251° West 360 414 36,000  Level Toronto Center
08:51AM 43.8333 -80.7667 248° West 360 414 36,000  Level Toronto Center
08:52AM 43.7667 -80.9000 235° Southwest 360 414 36,000  Level Toronto Center
08:53AM 43.7333 -81.0333 251° West 360 414 36,000  Level Toronto Center
08:54AM 43.7000 -81.1500 248° West 370 426 36,000  Level Toronto Center
08:55AM 43.6667 -81.3167 255° West 380 437 36,000  Level Toronto Center
08:56AM 43.6333 -81.4333 248° West 380 437 36,000  Level Toronto Center
08:57AM 43.5833 -81.5667 243° Southwest 380 437 36,000  Level Toronto Center
08:58AM 43.5500 -81.7000 251° West 370 426 36,000  Level Toronto Center
08:59AM 43.5167 -81.8333 251° West 370 426 36,000  Level Toronto Center
09:00AM 43.4667 -81.9833 245° Southwest 380 437 36,000  Level Toronto Center
09:01AM 43.4167 -82.0833 235° Southwest 380 437 36,000  Level Toronto Center
09:02AM 43.4139 -82.1978 268° West 375 432 36,000  Level Cleveland Center
09:03AM 43.3744 -82.3311 248° West 375 432 36,000  Level Cleveland Center
09:03AM 43.3500 -82.3667 227° Southwest 370 426 36,000  Level Toronto Center
09:04AM 43.3167 -82.5000 251° West 370 426 36,000  Level Toronto Center
09:05AM 43.2833 -82.6333 251° West 380 437 36,000  Level Toronto Center
09:06AM 43.2531 -82.7239 245° Southwest 375 432 36,000  Level Cleveland Center
09:07AM 43.2150 -82.8622 249° West 380 437 36,000  Level Cleveland Center
09:08AM 43.1767 -83.0031 250° West 392 451 36,000  Level Cleveland Center
09:09AM 43.1364 -83.1408 248° West 392 451 36,000  Level Cleveland Center
09:10AM 43.0978 -83.2786 249° West 397 457 36,000  Level Cleveland Center
09:11AM 43.0589 -83.4192 249° West 397 457 36,000  Level Cleveland Center
09:12AM 43.0200 -83.5592 249° West 391 450 36,000  Level Cleveland Center
09:13AM 42.9789 -83.6964 248° West 391 450 36,000  Level Cleveland Center
09:14AM 42.9539 -83.8428 257° West 396 456 36,000  Level Cleveland Center
09:15AM 42.9411 -83.9953 264° West 402 463 36,000 -240 Level Cleveland Center
09:16AM 42.9264 -84.1419 262° West 402 463 35,600 -1,080 Descending Cleveland Center
09:18AM 42.8917 -84.5100 263° West 405 466 32,400 -1,080 Descending Chicago Center
09:19AM 42.8758 -84.6597 262° West 400 460 32,000 -240 Descending Chicago Center
09:20AM 42.8569 -84.8447 262° West 411 473 32,000  Level Chicago Center
09:21AM 42.8406 -84.9989 262° West 412 474 32,000  Level Chicago Center
09:22AM 42.8244 -85.1536 262° West 413 475 32,000  Level Chicago Center
09:23AM 42.8075 -85.3083 262° West 413 475 32,000  Level Chicago Center
09:25AM 42.7908 -85.4633 262° West 413 475 32,000  Level Chicago Center
09:26AM 42.7661 -85.6144 257° West 410 472 32,000 -900 Level Chicago Center
09:27AM 42.7397 -85.7581 256° West 395 455 30,200 -2,640 Descending Chicago Center
09:28AM 42.7147 -85.8983 256° West 383 441 26,600 -3,180 Descending Chicago Center
09:29AM 42.6878 -86.0442 256° West 392 451 23,700 -2,760 Descending Chicago Center
09:30AM 42.6561 -86.2167 256° West 392 451 20,900 -1,800 Descending Chicago Center
09:31AM 42.6300 -86.3517 255° West 372 428 20,000 -480 Descending Chicago Center
09:32AM 42.6042 -86.4900 256° West 378 435 20,000 -840 Level Chicago Center
09:33AM 42.5794 -86.6236 256° West 370 426 18,400 -2,100 Descending Chicago Center
09:34AM 42.5536 -86.7564 255° West 364 419 15,700 -2,160 Descending Chicago Center
09:35AM 42.5186 -86.8783 249° West 352 405 14,000 -1,980 Descending Chicago Center
09:36AM 42.4872 -86.9956 250° West 335 386 11,700 -2,040 Descending Chicago Center
09:37AM 42.4519 -87.1208 249° West 298 343 9,800 -1,560 Descending Chicago Center
09:38AM 42.4261 -87.2158 250° West 278 320 8,500 -1,620 Descending Chicago Center
09:39AM 42.4031 -87.3022 250° West 253 291 6,600 -1,260 Descending Chicago Center
09:40AM 42.3783 -87.3878 249° West 246 283 6,000 -300 Descending Chicago Center
09:41AM 42.3164 -87.4039 191° South 253 291 6,000 -420 Level Chicago Center
09:42AM 42.2481 -87.3942 174° South 250 288 5,200 -540 Descending Chicago Center
09:43AM 42.1689 -87.3836 174° South 242 278 5,000 -240 Descending Chicago Center
09:44AM 42.1136 -87.3744 173° South 218 251 4,800 -540 Descending Chicago Center
09:45AM 42.0614 -87.3542 164° South 201 231 4,000 -420 Descending Chicago Center
09:46AM 42.0250 -87.3806 208° Southwest 192 221 4,000  Level Chicago Center
09:46AM 42.0167 -87.4000 240° Southwest 171 197 4,000  Level Chicago TRACON
09:47AM 42.0000 -87.4500 246° West 167 192 4,000  Level Chicago TRACON
09:48AM 42.0000 -87.5167 270° West 177 204 4,000  Level Chicago TRACON
09:50AM 42.0000 -87.6000 270° West 168 193 4,000  Level Chicago TRACON
09:50AM 42.0000 -87.6500 270° West 164 189 4,000 -240 Level Chicago TRACON
09:51AM 42.0000 -87.7167 270° West 170 196 3,600 -660 Descending Chicago TRACON
09:52AM 42.0000 -87.7667 270° West 163 188 2,700 -900 Descending Chicago TRACON
09:53AM 42.0000 -87.8167 270° West 118 136 1,900 -780 Descending Chicago TRACON
09:54AM 42.0000 -87.8667 270° West 118 136 1,300 -660 Descending Chicago TRACON
09:56AM 41.9667 -87.9000 235° Southwest  Level FlightAware Approximate
10:03AM 41.9817 -87.9067 235° Southwest  Level Estimated